Hilo, HI (96720)

2:53 PM HST on February 11, 2016 (GMT -1000)
Sunrise Estates | | Change Station
CLOSE
Current Station
Personal Weather Station
Location: Hilo, HI
Elevation: 413 ft
Nearby Weather Stations
Active Advisory: High Surf Advisory

Elev 413 ft 19.70 °N, 155.10 °W | Updated 13 seconds ago

Partly Cloudy
Partly Cloudy
76.6 °F
Feels Like 78 °F
N
0.2
Wind Variable Wind from SW
Gusts 2.5 mph

Today
High -- | Low -- °F
--% Chance of Precip.
Yesterday
High -- | Low -- °F
Precip. -- in
Pressure 30.03 in
Visibility 10.0 miles
Clouds Few 3500 ft
Heat Index 78 °F
Dew Point 61 °F
Humidity 59%
Rainfall 0.00 in
Snow Depth Not available.
6:51 AM 6:17 PM
Waxing Crescent, 16% visible
METAR PHTO 112353Z 03010KT 10SM FEW035 28/16 A3003 RMK AO2 SLP167 T02780156 10283 20194 58027
Pressure 30.03 in
Visibility 10.0 miles
Clouds Few 3500 ft
Heat Index 78 °F
Dew Point 61 °F
Humidity 59%
Rainfall 0.00 in
Snow Depth Not available.
6:51 AM 6:17 PM
Waxing Crescent, 16% visible
METAR PHTO 112353Z 03010KT 10SM FEW035 28/16 A3003 RMK AO2 SLP167 T02780156 10283 20194 58027

10-Day Weather Forecast

Almanac

Astronomy

Feb. 11, 2016 Rise Set
Actual Time
Civil Twilight
Nautical Twilight
Astronomical Twilight
Moon
Length of Visible Light
Length of Day
Tomorrow will be .
, % of the Moon is Illuminated

Today's Extremes

State Highs State Lows

Community

WunderPhotos

Upload Photos

1,892,195 photos uploaded!

WunderBlog® & News

Nearby

Air Quality

  Air Quality AQ Index Pollutant
Not available.

Snow Depth

Station Depth Elevation

Earthquake Activity

City Distance Mag. Time & Date
Minimum magnitude displayed is 2.5.

Coastal Water Temperatures

Place Temperature

Stations

Nearby Weather Stations

Station Location Temp. Windchill Dew Point Humidity Wind Precip. Elev Updated Type
                   

Watches & Warnings

High Surf Advisory
Issued: 3:44 AM HST Feb. 11, 2016 – National Weather Service

... High surf advisory remains in effect until 6 PM HST this
evening...

* surf... along north facing shores of The Big Island... 12 to 16
feet.

* Timing... through this afternoon.

* Impacts... moderate... expect strong breaking waves... shore
break... and strong longshore and rip currents making swimming
difficult and dangerous.

Precautionary/preparedness actions...

Beachgoers... swimmers... and surfers should heed all advice given
by ocean safety officials and exercise caution. Know your
limits... when in doubt... do not go out.



Jacobson